ACA141 CYYZ-CYYC
Flight info
| Callsign | ACA141 |
|---|---|
| Flight time | N/A |
| Altitude | 34000 |
| Route | AVSEP7 MUSIT DCT SSM DCT AGLIN DCT GABOV DCT KOBID/N0455F360 DCT NILTT DCT GUDOG DCT PIKLA BIRKO6 |
| Aircraft | A321/M-SDE3FGHIRWY/LB1 |
Departure
| Time | 2026-05-06 15:07 |
|---|---|
| Airport | Toronto Pearson International Airport (CYYZ) |
Arrival
| Time | N/A |
|---|---|
| Airport | Calgary International Airport (CYYC) |
| Time | Latitude | Longitude | Altitude | Speed | Heading |
|---|---|---|---|---|---|
| 2026-05-06 14:41 | 43.67607 | -79.61022 | 562 ft | 0 kts | 330° |
| 2026-05-06 14:55 | 43.67605 | -79.61021 | 562 ft | 2 kts | 331° |
| 2026-05-06 14:55 | 43.67586 | -79.61008 | 562 ft | 2 kts | 328° |
| 2026-05-06 14:55 | 43.67577 | -79.61000 | 562 ft | 2 kts | 330° |
| 2026-05-06 14:56 | 43.67562 | -79.60989 | 561 ft | 2 kts | 330° |
| 2026-05-06 14:56 | 43.67548 | -79.60978 | 561 ft | 2 kts | 330° |
| 2026-05-06 14:56 | 43.67538 | -79.60970 | 561 ft | 2 kts | 326° |
| 2026-05-06 14:56 | 43.67529 | -79.60951 | 561 ft | 2 kts | 275° |
| 2026-05-06 14:57 | 43.67530 | -79.60937 | 561 ft | 1 kts | 247° |
| 2026-05-06 14:57 | 43.67532 | -79.60931 | 561 ft | 0 kts | 253° |
| 2026-05-06 14:58 | 43.67530 | -79.60938 | 561 ft | 1 kts | 250° |
| 2026-05-06 14:58 | 43.67524 | -79.60957 | 561 ft | 2 kts | 245° |
| 2026-05-06 14:59 | 43.67511 | -79.60995 | 561 ft | 5 kts | 246° |
| 2026-05-06 14:59 | 43.67495 | -79.61053 | 561 ft | 6 kts | 253° |
| 2026-05-06 14:59 | 43.67484 | -79.61136 | 563 ft | 9 kts | 264° |
| 2026-05-06 14:59 | 43.67459 | -79.61250 | 563 ft | 12 kts | 225° |
| 2026-05-06 15:00 | 43.67364 | -79.61324 | 561 ft | 14 kts | 204° |
| 2026-05-06 15:00 | 43.67317 | -79.61442 | 560 ft | 14 kts | 299° |
| 2026-05-06 15:00 | 43.67390 | -79.61552 | 561 ft | 13 kts | 317° |
| 2026-05-06 15:00 | 43.67465 | -79.61647 | 563 ft | 12 kts | 317° |
| 2026-05-06 15:01 | 43.67536 | -79.61736 | 565 ft | 11 kts | 317° |
| 2026-05-06 15:01 | 43.67598 | -79.61817 | 566 ft | 11 kts | 314° |
| 2026-05-06 15:01 | 43.67664 | -79.61906 | 568 ft | 12 kts | 315° |
| 2026-05-06 15:01 | 43.67739 | -79.62004 | 570 ft | 14 kts | 317° |
| 2026-05-06 15:02 | 43.67825 | -79.62103 | 570 ft | 15 kts | 322° |
| 2026-05-06 15:02 | 43.67913 | -79.62196 | 572 ft | 14 kts | 323° |
| 2026-05-06 15:02 | 43.67995 | -79.62279 | 573 ft | 13 kts | 323° |
| 2026-05-06 15:02 | 43.68075 | -79.62371 | 572 ft | 13 kts | 318° |
| 2026-05-06 15:03 | 43.68157 | -79.62477 | 570 ft | 15 kts | 315° |
| 2026-05-06 15:03 | 43.68251 | -79.62601 | 568 ft | 17 kts | 316° |
| 2026-05-06 15:03 | 43.68347 | -79.62733 | 565 ft | 18 kts | 315° |
| 2026-05-06 15:03 | 43.68456 | -79.62874 | 560 ft | 20 kts | 317° |
| 2026-05-06 15:04 | 43.68573 | -79.63020 | 558 ft | 20 kts | 317° |
| 2026-05-06 15:04 | 43.68693 | -79.63174 | 556 ft | 20 kts | 315° |
| 2026-05-06 15:04 | 43.68815 | -79.63336 | 553 ft | 21 kts | 316° |
| 2026-05-06 15:04 | 43.68938 | -79.63493 | 549 ft | 22 kts | 315° |
| 2026-05-06 15:05 | 43.69071 | -79.63670 | 543 ft | 24 kts | 316° |
| 2026-05-06 15:05 | 43.69208 | -79.63849 | 543 ft | 22 kts | 316° |
| 2026-05-06 15:05 | 43.69329 | -79.64016 | 546 ft | 20 kts | 309° |
| 2026-05-06 15:05 | 43.69343 | -79.64209 | 547 ft | 18 kts | 241° |
| 2026-05-06 15:06 | 43.69231 | -79.64249 | 547 ft | 19 kts | 146° |
| 2026-05-06 15:06 | 43.68912 | -79.63841 | 543 ft | 94 kts | 136° |
| 2026-05-06 15:06 | 43.68257 | -79.62988 | 562 ft | 152 kts | 136° |
| 2026-05-06 15:06 | 43.67256 | -79.61660 | 688 ft | 193 kts | 135° |
| 2026-05-06 15:07 | 43.66106 | -79.60280 | 1528 ft | 190 kts | 137° |
| 2026-05-06 15:07 | 43.64994 | -79.58907 | 2400 ft | 187 kts | 138° |
| 2026-05-06 15:07 | 43.63867 | -79.57429 | 2875 ft | 203 kts | 143° |
| 2026-05-06 15:07 | 43.62234 | -79.56826 | 3291 ft | 215 kts | 193° |
| 2026-05-06 15:08 | 43.60661 | -79.57931 | 3728 ft | 231 kts | 215° |
| 2026-05-06 15:08 | 43.59040 | -79.59365 | 4274 ft | 249 kts | 212° |
| 2026-05-06 15:08 | 43.57245 | -79.60752 | 5004 ft | 260 kts | 210° |
| 2026-05-06 15:08 | 43.55374 | -79.62174 | 5902 ft | 263 kts | 219° |
| 2026-05-06 15:09 | 43.54128 | -79.64584 | 6761 ft | 264 kts | 254° |
| 2026-05-06 15:09 | 43.54722 | -79.70921 | 8875 ft | 264 kts | 281° |
| 2026-05-06 15:09 | 43.55260 | -79.73894 | 9789 ft | 265 kts | 280° |
| 2026-05-06 15:10 | 43.55793 | -79.76852 | 10599 ft | 270 kts | 282° |
| 2026-05-06 15:10 | 43.56756 | -79.79855 | 11110 ft | 291 kts | 296° |
| 2026-05-06 15:10 | 43.58347 | -79.82654 | 11656 ft | 310 kts | 306° |
| 2026-05-06 15:10 | 43.60147 | -79.85371 | 12138 ft | 325 kts | 307° |
| 2026-05-06 15:11 | 43.61999 | -79.88132 | 12843 ft | 331 kts | 307° |
| 2026-05-06 15:11 | 43.63909 | -79.90988 | 13625 ft | 335 kts | 307° |
| 2026-05-06 15:11 | 43.65813 | -79.93673 | 14350 ft | 339 kts | 308° |
| 2026-05-06 15:11 | 43.67809 | -79.96446 | 15094 ft | 343 kts | 308° |
| 2026-05-06 15:12 | 43.69830 | -79.99250 | 15862 ft | 344 kts | 308° |
| 2026-05-06 15:12 | 43.71861 | -80.02077 | 16584 ft | 347 kts | 308° |
| 2026-05-06 15:12 | 43.73910 | -80.04929 | 17290 ft | 349 kts | 307° |
| 2026-05-06 15:12 | 43.76006 | -80.07858 | 17946 ft | 352 kts | 307° |
| 2026-05-06 15:13 | 43.78138 | -80.10838 | 18617 ft | 355 kts | 307° |
| 2026-05-06 15:13 | 43.80252 | -80.13792 | 19300 ft | 357 kts | 307° |
| 2026-05-06 15:13 | 43.82410 | -80.16745 | 19962 ft | 361 kts | 309° |
| 2026-05-06 15:13 | 43.84757 | -80.19562 | 20628 ft | 366 kts | 313° |
| 2026-05-06 15:14 | 43.87250 | -80.22166 | 21214 ft | 371 kts | 315° |
| 2026-05-06 15:14 | 43.89754 | -80.24666 | 21747 ft | 375 kts | 315° |
| 2026-05-06 15:14 | 43.92178 | -80.27072 | 22266 ft | 378 kts | 315° |
| 2026-05-06 15:14 | 43.94587 | -80.29469 | 22713 ft | 382 kts | 315° |
| 2026-05-06 15:15 | 43.97198 | -80.32076 | 23248 ft | 384 kts | 315° |
| 2026-05-06 15:15 | 43.99718 | -80.34592 | 23767 ft | 386 kts | 315° |
| 2026-05-06 15:15 | 44.02206 | -80.37083 | 24209 ft | 389 kts | 315° |
| 2026-05-06 15:15 | 44.04734 | -80.39617 | 24701 ft | 390 kts | 315° |
| 2026-05-06 15:16 | 44.07059 | -80.41948 | 25132 ft | 391 kts | 315° |
| 2026-05-06 15:16 | 44.09489 | -80.44389 | 25577 ft | 393 kts | 315° |
| 2026-05-06 15:16 | 44.11963 | -80.46957 | 26005 ft | 392 kts | 313° |
| 2026-05-06 15:16 | 44.14307 | -80.49738 | 26398 ft | 390 kts | 309° |
| 2026-05-06 15:17 | 44.16393 | -80.52573 | 26790 ft | 388 kts | 306° |
| 2026-05-06 15:17 | 44.18431 | -80.55576 | 27185 ft | 388 kts | 305° |
| 2026-05-06 15:17 | 44.20514 | -80.58675 | 27556 ft | 389 kts | 305° |
| 2026-05-06 15:17 | 44.22555 | -80.61725 | 27731 ft | 395 kts | 305° |
| 2026-05-06 15:18 | 44.24586 | -80.64763 | 27909 ft | 400 kts | 305° |
| 2026-05-06 15:18 | 44.26848 | -80.68143 | 28256 ft | 402 kts | 305° |
| 2026-05-06 15:18 | 44.29143 | -80.71569 | 28660 ft | 403 kts | 305° |
| 2026-05-06 15:18 | 44.31443 | -80.75013 | 29105 ft | 402 kts | 305° |
| 2026-05-06 15:19 | 44.33621 | -80.78269 | 29585 ft | 400 kts | 305° |
| 2026-05-06 15:19 | 44.35747 | -80.81457 | 30044 ft | 397 kts | 305° |
| 2026-05-06 15:19 | 44.37744 | -80.84454 | 30475 ft | 395 kts | 304° |
| 2026-05-06 15:19 | 44.39804 | -80.87549 | 30861 ft | 393 kts | 304° |
| 2026-05-06 15:20 | 44.41778 | -80.90522 | 31165 ft | 393 kts | 304° |
| 2026-05-06 15:20 | 44.43890 | -80.93706 | 31427 ft | 394 kts | 304° |
| 2026-05-06 15:20 | 44.45859 | -80.96677 | 31649 ft | 395 kts | 304° |
| 2026-05-06 15:20 | 44.47875 | -80.99724 | 31904 ft | 395 kts | 304° |
| 2026-05-06 15:21 | 44.49969 | -81.02889 | 32161 ft | 395 kts | 304° |
| 2026-05-06 15:21 | 44.52011 | -81.05985 | 32339 ft | 396 kts | 304° |
| 2026-05-06 15:21 | 44.54002 | -81.09002 | 32514 ft | 398 kts | 304° |
| 2026-05-06 15:21 | 44.56001 | -81.12032 | 32712 ft | 399 kts | 304° |
| 2026-05-06 15:22 | 44.58093 | -81.15207 | 32860 ft | 400 kts | 304° |
| 2026-05-06 15:22 | 44.60104 | -81.18269 | 32984 ft | 401 kts | 304° |
| 2026-05-06 15:22 | 44.62159 | -81.21392 | 33117 ft | 402 kts | 304° |
| 2026-05-06 15:22 | 44.64142 | -81.24416 | 33242 ft | 403 kts | 304° |
| 2026-05-06 15:23 | 44.66251 | -81.27633 | 33379 ft | 404 kts | 304° |
| 2026-05-06 15:23 | 44.68308 | -81.30774 | 33483 ft | 405 kts | 304° |
| 2026-05-06 15:23 | 44.70355 | -81.33902 | 33603 ft | 406 kts | 305° |
| 2026-05-06 15:24 | 44.74521 | -81.40282 | 33788 ft | 409 kts | 304° |
| 2026-05-06 15:24 | 44.76645 | -81.43542 | 33914 ft | 410 kts | 304° |
| 2026-05-06 15:24 | 44.78750 | -81.46775 | 33917 ft | 411 kts | 305° |
| 2026-05-06 15:25 | 44.82266 | -81.52178 | 33916 ft | 411 kts | 304° |